This is the latest recevied weather packets stored in our database for station/object IW1QQG-13. If no packets are shown the sender has not sent any weather packets the latest 1 day(s).
| Time | Temp. | Humidity | Pressure | Rain* | Wind** | Luminosity | Snow |
|---|---|---|---|---|---|---|---|
| 1778060164 | 20.56° C | 62% | 1009.8 hPa | 0 mm | 0.45 m/s, 199° | 225 W/m² | - |
| 1778059564 | 20.56° C | 63% | 1010.2 hPa | 0 mm | 1.34 m/s, 321° | 136 W/m² | - |
| 1778058964 | 20.56° C | 63% | 1010.2 hPa | 0 mm | 0.45 m/s, 132° | 150 W/m² | - |
| 1778058368 | 20.56° C | 62% | 1010.2 hPa | 0 mm | 0.45 m/s, 154° | 143 W/m² | - |
| 1778057764 | 19.44° C | 66% | 1010.2 hPa | 0 mm | 1.34 m/s, 144° | 119 W/m² | - |
| 1778057163 | 19.44° C | 63% | 1009.8 hPa | 0 mm | 1.79 m/s, 78° | 121 W/m² | - |
| 1778056563 | 19.44° C | 68% | 1009.8 hPa | 0 mm | 0.45 m/s, 165° | 34 W/m² | - |
| 1778055964 | 19.44° C | 68% | 1009.8 hPa | 0 mm | 0 m/s | - | - |
| 1778055363 | 18.33° C | 70% | 1009.8 hPa | 0 mm | 0 m/s | - | - |
| 1778054763 | 17.78° C | 68% | 1009.8 hPa | 0 mm | 0.89 m/s, 90° | 229 W/m² | - |
| 1778054164 | 17.78° C | 71% | 1009.8 hPa | 0 mm | 0.89 m/s, 177° | - | - |
| 1778052357 | 16.11° C | 81% | 1009.8 hPa | 0 mm | 0.45 m/s, 193° | 196 W/m² | - |
| 1778051757 | 16.67° C | 79% | 1009.8 hPa | 0 mm | 0.45 m/s, 188° | 139 W/m² | - |
| 1778051157 | 17.78° C | 75% | 1009.8 hPa | 0 mm | 0 m/s | - | - |
| 1778050557 | 16.67° C | 77% | 1009.5 hPa | 0 mm | 1.34 m/s, 96° | 328 W/m² | - |
| 1778049957 | 17.22° C | 75% | 1009.5 hPa | 0 mm | 0 m/s | 291 W/m² | - |
| 1778049357 | 17.22° C | 79% | 1009.5 hPa | 0 mm | 0 m/s | 260 W/m² | - |
| 1778048757 | 16.67° C | 77% | 1009.5 hPa | 0 mm | 0 m/s | 236 W/m² | - |
| 1778048160 | 16.67° C | 78% | 1009.5 hPa | 0 mm | 0 m/s | 286 W/m² | - |
| 1778047557 | 15.56° C | 84% | 1009.5 hPa | 0 mm | 0.45 m/s, 193° | 183 W/m² | - |
| 1778046957 | 14.44° C | 87% | 1009.5 hPa | 0 mm | 0.89 m/s, 340° | 156 W/m² | - |
| 1778046357 | 13.89° C | 88% | 1009.5 hPa | 0 mm | 0.89 m/s, 0° | 128 W/m² | - |
| 1778045757 | 12.78° C | 94% | 1009.1 hPa | 0 mm | 0.45 m/s, 216° | 47 W/m² | - |
| 1778045157 | 12.22° C | 94% | 1009.1 hPa | 0 mm | 0.45 m/s, 209° | 40 W/m² | - |
| 1778044557 | 11.67° C | 96% | 1009.1 hPa | 0 mm | 0.45 m/s, 244° | 36 W/m² | - |
* Rain latest hour (hover to see other rain measurements)
** Current wind speed in m/s (hover to see current wind gust speed)